sensor_id;sensor_type;location;lat;lon;timestamp;pressure;altitude;pressure_sealevel;temperature;humidity
58223;BME280;44020;50.890;15.796;2022-08-21T00:01:16;97477.59;;;16.55;100.00
58223;BME280;44020;50.890;15.796;2022-08-21T00:03:46;97478.62;;;16.56;100.00
58223;BME280;44020;50.890;15.796;2022-08-21T00:06:13;97475.60;;;16.57;100.00
58223;BME280;44020;50.890;15.796;2022-08-21T00:08:41;97478.70;;;16.58;100.00
58223;BME280;44020;50.890;15.796;2022-08-21T00:11:09;97482.44;;;16.59;100.00
58223;BME280;44020;50.890;15.796;2022-08-21T00:13:36;97483.30;;;16.59;100.00
58223;BME280;44020;50.890;15.796;2022-08-21T00:16:03;97483.75;;;16.58;100.00
58223;BME280;44020;50.890;15.796;2022-08-21T00:18:30;97485.53;;;16.56;100.00
58223;BME280;44020;50.890;15.796;2022-08-21T00:20:58;97484.98;;;16.55;100.00
58223;BME280;44020;50.890;15.796;2022-08-21T00:23:25;97487.95;;;16.54;100.00
58223;BME280;44020;50.890;15.796;2022-08-21T00:25:52;97483.36;;;16.53;100.00
58223;BME280;44020;50.890;15.796;2022-08-21T00:28:19;97483.42;;;16.52;100.00
58223;BME280;44020;50.890;15.796;2022-08-21T00:30:46;97478.93;;;16.54;100.00
58223;BME280;44020;50.890;15.796;2022-08-21T00:33:13;97472.23;;;16.57;100.00
58223;BME280;44020;50.890;15.796;2022-08-21T00:35:42;97474.09;;;16.58;100.00
58223;BME280;44020;50.890;15.796;2022-08-21T00:38:10;97466.10;;;16.59;100.00
58223;BME280;44020;50.890;15.796;2022-08-21T00:40:43;97466.36;;;16.61;100.00
58223;BME280;44020;50.890;15.796;2022-08-21T00:43:13;97468.02;;;16.63;100.00
58223;BME280;44020;50.890;15.796;2022-08-21T00:45:40;97466.68;;;16.64;100.00
58223;BME280;44020;50.890;15.796;2022-08-21T00:48:08;97464.29;;;16.64;100.00
58223;BME280;44020;50.890;15.796;2022-08-21T00:50:40;97465.32;;;16.67;100.00
58223;BME280;44020;50.890;15.796;2022-08-21T00:53:10;97468.84;;;16.69;100.00
58223;BME280;44020;50.890;15.796;2022-08-21T00:55:38;97470.58;;;16.72;100.00
58223;BME280;44020;50.890;15.796;2022-08-21T00:58:08;97470.65;;;16.75;100.00
58223;BME280;44020;50.890;15.796;2022-08-21T01:00:39;97472.50;;;16.76;100.00
58223;BME280;44020;50.890;15.796;2022-08-21T01:03:12;97473.36;;;16.74;100.00
58223;BME280;44020;50.890;15.796;2022-08-21T01:05:41;97474.90;;;16.73;100.00
58223;BME280;44020;50.890;15.796;2022-08-21T01:08:10;97469.45;;;16.76;100.00
58223;BME280;44020;50.890;15.796;2022-08-21T01:10:37;97468.36;;;16.78;100.00
58223;BME280;44020;50.890;15.796;2022-08-21T01:13:06;97467.47;;;16.80;100.00
58223;BME280;44020;50.890;15.796;2022-08-21T01:15:40;97474.58;;;16.80;100.00
58223;BME280;44020;50.890;15.796;2022-08-21T01:18:10;97472.66;;;16.81;100.00
58223;BME280;44020;50.890;15.796;2022-08-21T01:20:42;97473.91;;;16.81;100.00
58223;BME280;44020;50.890;15.796;2022-08-21T01:23:10;97470.69;;;16.83;100.00
58223;BME280;44020;50.890;15.796;2022-08-21T01:25:37;97473.41;;;16.85;100.00
58223;BME280;44020;50.890;15.796;2022-08-21T01:28:14;97470.79;;;16.86;100.00
58223;BME280;44020;50.890;15.796;2022-08-21T01:30:43;97467.04;;;16.88;100.00
58223;BME280;44020;50.890;15.796;2022-08-21T01:33:10;97461.59;;;16.89;100.00
58223;BME280;44020;50.890;15.796;2022-08-21T01:35:37;97456.02;;;16.89;100.00
58223;BME280;44020;50.890;15.796;2022-08-21T01:38:05;97448.97;;;16.87;100.00
58223;BME280;44020;50.890;15.796;2022-08-21T01:40:32;97446.98;;;16.88;100.00
58223;BME280;44020;50.890;15.796;2022-08-21T01:42:59;97442.27;;;16.88;100.00
58223;BME280;44020;50.890;15.796;2022-08-21T01:45:26;97437.77;;;16.88;100.00
58223;BME280;44020;50.890;15.796;2022-08-21T01:47:53;97442.37;;;16.87;100.00
58223;BME280;44020;50.890;15.796;2022-08-21T01:50:20;97446.74;;;16.84;100.00
58223;BME280;44020;50.890;15.796;2022-08-21T01:52:48;97444.14;;;16.82;100.00
58223;BME280;44020;50.890;15.796;2022-08-21T01:55:17;97449.27;;;16.80;100.00
58223;BME280;44020;50.890;15.796;2022-08-21T01:57:45;97448.52;;;16.79;100.00
58223;BME280;44020;50.890;15.796;2022-08-21T02:00:15;97445.66;;;16.79;100.00
58223;BME280;44020;50.890;15.796;2022-08-21T02:02:43;97445.27;;;16.79;100.00
58223;BME280;44020;50.890;15.796;2022-08-21T02:05:11;97443.89;;;16.78;100.00
58223;BME280;44020;50.890;15.796;2022-08-21T02:07:47;97439.88;;;16.77;100.00
58223;BME280;44020;50.890;15.796;2022-08-21T02:10:17;97438.80;;;16.77;100.00
58223;BME280;44020;50.890;15.796;2022-08-21T02:12:44;97440.11;;;16.77;100.00
58223;BME280;44020;50.890;15.796;2022-08-21T02:15:11;97439.74;;;16.77;100.00
58223;BME280;44020;50.890;15.796;2022-08-21T02:17:49;97439.77;;;16.78;100.00
58223;BME280;44020;50.890;15.796;2022-08-21T02:20:24;97437.15;;;16.80;100.00
58223;BME280;44020;50.890;15.796;2022-08-21T02:22:52;97433.27;;;16.81;100.00
58223;BME280;44020;50.890;15.796;2022-08-21T02:25:20;97436.80;;;16.81;100.00
58223;BME280;44020;50.890;15.796;2022-08-21T02:27:49;97436.02;;;16.80;100.00
58223;BME280;44020;50.890;15.796;2022-08-21T02:30:22;97435.66;;;16.78;100.00
58223;BME280;44020;50.890;15.796;2022-08-21T02:32:50;97430.90;;;16.76;100.00
58223;BME280;44020;50.890;15.796;2022-08-21T02:35:17;97428.77;;;16.75;100.00
58223;BME280;44020;50.890;15.796;2022-08-21T02:37:51;97423.92;;;16.75;100.00
58223;BME280;44020;50.890;15.796;2022-08-21T02:40:22;97420.81;;;16.76;100.00
58223;BME280;44020;50.890;15.796;2022-08-21T02:42:49;97418.85;;;16.76;100.00
58223;BME280;44020;50.890;15.796;2022-08-21T02:45:17;97419.73;;;16.76;100.00
58223;BME280;44020;50.890;15.796;2022-08-21T02:48:10;97412.70;;;16.76;100.00
58223;BME280;44020;50.890;15.796;2022-08-21T02:50:51;97409.30;;;16.75;100.00
58223;BME280;44020;50.890;15.796;2022-08-21T02:53:19;97408.45;;;16.72;100.00
58223;BME280;44020;50.890;15.796;2022-08-21T02:55:49;97406.98;;;16.69;100.00
58223;BME280;44020;50.890;15.796;2022-08-21T02:58:24;97408.83;;;16.69;100.00
58223;BME280;44020;50.890;15.796;2022-08-21T03:00:52;97407.33;;;16.69;100.00
58223;BME280;44020;50.890;15.796;2022-08-21T03:03:20;97406.64;;;16.69;100.00
58223;BME280;44020;50.890;15.796;2022-08-21T03:05:48;97409.84;;;16.69;100.00
58223;BME280;44020;50.890;15.796;2022-08-21T03:08:15;97410.05;;;16.69;100.00
58223;BME280;44020;50.890;15.796;2022-08-21T03:10:45;97417.01;;;16.69;100.00
58223;BME280;44020;50.890;15.796;2022-08-21T03:13:14;97413.16;;;16.70;100.00
58223;BME280;44020;50.890;15.796;2022-08-21T03:15:42;97413.34;;;16.70;100.00
58223;BME280;44020;50.890;15.796;2022-08-21T03:18:09;97417.92;;;16.67;100.00
58223;BME280;44020;50.890;15.796;2022-08-21T03:20:38;97418.69;;;16.65;100.00
58223;BME280;44020;50.890;15.796;2022-08-21T03:23:06;97416.06;;;16.64;100.00
58223;BME280;44020;50.890;15.796;2022-08-21T03:25:34;97422.20;;;16.65;100.00
58223;BME280;44020;50.890;15.796;2022-08-21T03:28:03;97425.98;;;16.65;100.00
58223;BME280;44020;50.890;15.796;2022-08-21T03:30:32;97424.46;;;16.64;100.00
58223;BME280;44020;50.890;15.796;2022-08-21T03:32:59;97424.52;;;16.66;100.00
58223;BME280;44020;50.890;15.796;2022-08-21T03:35:28;97428.95;;;16.66;100.00
58223;BME280;44020;50.890;15.796;2022-08-21T03:37:56;97432.55;;;16.66;100.00
58223;BME280;44020;50.890;15.796;2022-08-21T03:40:24;97433.31;;;16.66;100.00
58223;BME280;44020;50.890;15.796;2022-08-21T03:42:51;97436.50;;;16.64;99.99
58223;BME280;44020;50.890;15.796;2022-08-21T03:45:19;97435.98;;;16.62;100.00
58223;BME280;44020;50.890;15.796;2022-08-21T03:47:55;97438.57;;;16.62;100.00
58223;BME280;44020;50.890;15.796;2022-08-21T03:50:24;97439.54;;;16.63;100.00
58223;BME280;44020;50.890;15.796;2022-08-21T03:52:52;97436.65;;;16.63;100.00
58223;BME280;44020;50.890;15.796;2022-08-21T03:55:19;97439.36;;;16.64;100.00
58223;BME280;44020;50.890;15.796;2022-08-21T03:57:46;97442.64;;;16.66;99.99
58223;BME280;44020;50.890;15.796;2022-08-21T04:00:14;97440.98;;;16.66;99.92
58223;BME280;44020;50.890;15.796;2022-08-21T04:02:42;97433.81;;;16.64;99.88
58223;BME280;44020;50.890;15.796;2022-08-21T04:05:11;97433.27;;;16.64;100.00
58223;BME280;44020;50.890;15.796;2022-08-21T04:07:39;97428.33;;;16.65;99.89
58223;BME280;44020;50.890;15.796;2022-08-21T04:10:07;97430.44;;;16.66;99.77
58223;BME280;44020;50.890;15.796;2022-08-21T04:12:34;97430.40;;;16.66;99.82
58223;BME280;44020;50.890;15.796;2022-08-21T04:15:01;97432.49;;;16.67;99.84
58223;BME280;44020;50.890;15.796;2022-08-21T04:17:29;97436.56;;;16.67;99.85
58223;BME280;44020;50.890;15.796;2022-08-21T04:19:55;97437.84;;;16.67;99.82
58223;BME280;44020;50.890;15.796;2022-08-21T04:22:23;97439.05;;;16.68;99.84
58223;BME280;44020;50.890;15.796;2022-08-21T04:24:50;97440.06;;;16.68;99.84
58223;BME280;44020;50.890;15.796;2022-08-21T04:27:17;97444.80;;;16.68;99.79
58223;BME280;44020;50.890;15.796;2022-08-21T04:29:44;97446.95;;;16.66;99.79
58223;BME280;44020;50.890;15.796;2022-08-21T04:32:10;97444.54;;;16.65;99.83
58223;BME280;44020;50.890;15.796;2022-08-21T04:34:37;97450.14;;;16.66;99.86
58223;BME280;44020;50.890;15.796;2022-08-21T04:37:04;97454.86;;;16.68;99.96
58223;BME280;44020;50.890;15.796;2022-08-21T04:39:31;97465.64;;;16.69;99.78
58223;BME280;44020;50.890;15.796;2022-08-21T04:41:58;97473.60;;;16.68;99.68
58223;BME280;44020;50.890;15.796;2022-08-21T04:44:25;97476.84;;;16.66;99.76
58223;BME280;44020;50.890;15.796;2022-08-21T04:46:52;97475.79;;;16.64;99.75
58223;BME280;44020;50.890;15.796;2022-08-21T04:49:19;97470.08;;;16.62;99.72
58223;BME280;44020;50.890;15.796;2022-08-21T04:51:46;97469.52;;;16.61;99.76
58223;BME280;44020;50.890;15.796;2022-08-21T04:54:20;97470.30;;;16.60;99.82
58223;BME280;44020;50.890;15.796;2022-08-21T04:56:53;97473.45;;;16.61;99.90
58223;BME280;44020;50.890;15.796;2022-08-21T04:59:32;97481.90;;;16.61;99.87
58223;BME280;44020;50.890;15.796;2022-08-21T05:02:02;97483.80;;;16.59;100.00
58223;BME280;44020;50.890;15.796;2022-08-21T05:04:32;97488.45;;;16.60;100.00
58223;BME280;44020;50.890;15.796;2022-08-21T05:07:03;97493.73;;;16.57;100.00
58223;BME280;44020;50.890;15.796;2022-08-21T05:09:30;97498.52;;;16.52;100.00
58223;BME280;44020;50.890;15.796;2022-08-21T05:11:58;97503.25;;;16.50;100.00
58223;BME280;44020;50.890;15.796;2022-08-21T05:14:25;97513.31;;;16.44;100.00
58223;BME280;44020;50.890;15.796;2022-08-21T05:16:53;97519.14;;;16.37;100.00
58223;BME280;44020;50.890;15.796;2022-08-21T05:19:21;97527.19;;;16.32;100.00
58223;BME280;44020;50.890;15.796;2022-08-21T05:21:47;97530.89;;;16.25;100.00
58223;BME280;44020;50.890;15.796;2022-08-21T05:24:15;97536.73;;;16.22;100.00
58223;BME280;44020;50.890;15.796;2022-08-21T05:26:43;97536.75;;;16.16;100.00
58223;BME280;44020;50.890;15.796;2022-08-21T05:29:11;97545.48;;;16.10;100.00
58223;BME280;44020;50.890;15.796;2022-08-21T05:31:39;97547.45;;;16.06;100.00
58223;BME280;44020;50.890;15.796;2022-08-21T05:34:06;97550.23;;;16.01;100.00
58223;BME280;44020;50.890;15.796;2022-08-21T05:36:34;97552.16;;;15.99;100.00
58223;BME280;44020;50.890;15.796;2022-08-21T05:39:02;97557.27;;;15.98;100.00
58223;BME280;44020;50.890;15.796;2022-08-21T05:41:29;97554.77;;;15.96;100.00
58223;BME280;44020;50.890;15.796;2022-08-21T05:43:56;97557.11;;;15.94;100.00
58223;BME280;44020;50.890;15.796;2022-08-21T05:46:23;97558.61;;;15.94;100.00
58223;BME280;44020;50.890;15.796;2022-08-21T05:48:50;97559.90;;;15.91;100.00
58223;BME280;44020;50.890;15.796;2022-08-21T05:51:17;97567.05;;;15.90;100.00
58223;BME280;44020;50.890;15.796;2022-08-21T05:53:45;97569.18;;;15.90;100.00
58223;BME280;44020;50.890;15.796;2022-08-21T05:56:13;97569.17;;;15.88;100.00
58223;BME280;44020;50.890;15.796;2022-08-21T05:58:42;97570.56;;;15.89;100.00
58223;BME280;44020;50.890;15.796;2022-08-21T06:01:09;97578.54;;;15.88;100.00
58223;BME280;44020;50.890;15.796;2022-08-21T06:03:39;97575.90;;;15.87;100.00
58223;BME280;44020;50.890;15.796;2022-08-21T06:06:07;97577.94;;;15.88;100.00
58223;BME280;44020;50.890;15.796;2022-08-21T06:08:34;97584.20;;;15.88;100.00
58223;BME280;44020;50.890;15.796;2022-08-21T06:11:03;97586.48;;;15.89;100.00
58223;BME280;44020;50.890;15.796;2022-08-21T06:13:31;97592.30;;;15.86;100.00
58223;BME280;44020;50.890;15.796;2022-08-21T06:16:08;97595.19;;;15.86;100.00
58223;BME280;44020;50.890;15.796;2022-08-21T06:18:36;97601.65;;;15.88;100.00
58223;BME280;44020;50.890;15.796;2022-08-21T06:21:04;97605.05;;;15.88;100.00
58223;BME280;44020;50.890;15.796;2022-08-21T06:23:33;97608.59;;;15.88;100.00
58223;BME280;44020;50.890;15.796;2022-08-21T06:26:02;97612.33;;;15.89;100.00
58223;BME280;44020;50.890;15.796;2022-08-21T06:28:32;97608.70;;;15.89;100.00
58223;BME280;44020;50.890;15.796;2022-08-21T06:31:00;97611.80;;;15.88;100.00
58223;BME280;44020;50.890;15.796;2022-08-21T06:33:27;97613.92;;;15.89;100.00
58223;BME280;44020;50.890;15.796;2022-08-21T06:35:54;97611.75;;;15.89;100.00
58223;BME280;44020;50.890;15.796;2022-08-21T06:38:21;97611.92;;;15.91;100.00
58223;BME280;44020;50.890;15.796;2022-08-21T06:40:49;97609.47;;;15.92;100.00
58223;BME280;44020;50.890;15.796;2022-08-21T06:43:16;97613.57;;;15.92;99.97
58223;BME280;44020;50.890;15.796;2022-08-21T06:45:44;97613.02;;;15.91;99.88
58223;BME280;44020;50.890;15.796;2022-08-21T06:48:11;97611.15;;;15.88;99.93
58223;BME280;44020;50.890;15.796;2022-08-21T06:50:38;97611.92;;;15.89;99.98
58223;BME280;44020;50.890;15.796;2022-08-21T06:53:09;97613.36;;;15.91;99.96
58223;BME280;44020;50.890;15.796;2022-08-21T06:55:37;97617.39;;;15.92;99.90
58223;BME280;44020;50.890;15.796;2022-08-21T06:58:05;97613.94;;;15.92;99.80
58223;BME280;44020;50.890;15.796;2022-08-21T07:00:33;97615.71;;;15.92;99.55
58223;BME280;44020;50.890;15.796;2022-08-21T07:03:00;97617.58;;;15.92;99.63
58223;BME280;44020;50.890;15.796;2022-08-21T07:05:30;97614.30;;;15.92;99.49
58223;BME280;44020;50.890;15.796;2022-08-21T07:07:58;97619.11;;;15.92;99.45
58223;BME280;44020;50.890;15.796;2022-08-21T07:10:26;97615.48;;;15.93;99.31
58223;BME280;44020;50.890;15.796;2022-08-21T07:12:54;97612.83;;;15.93;99.22
58223;BME280;44020;50.890;15.796;2022-08-21T07:15:21;97615.90;;;15.92;99.23
58223;BME280;44020;50.890;15.796;2022-08-21T07:17:48;97613.95;;;15.92;99.21
58223;BME280;44020;50.890;15.796;2022-08-21T07:20:16;97611.02;;;15.93;99.08
58223;BME280;44020;50.890;15.796;2022-08-21T07:22:43;97609.63;;;15.94;99.03
58223;BME280;44020;50.890;15.796;2022-08-21T07:25:11;97607.62;;;15.95;98.89
58223;BME280;44020;50.890;15.796;2022-08-21T07:27:38;97610.00;;;15.96;98.86
58223;BME280;44020;50.890;15.796;2022-08-21T07:30:06;97611.69;;;15.97;98.78
58223;BME280;44020;50.890;15.796;2022-08-21T07:32:33;97612.36;;;15.98;98.74
58223;BME280;44020;50.890;15.796;2022-08-21T07:35:00;97610.70;;;15.96;98.71
58223;BME280;44020;50.890;15.796;2022-08-21T07:37:27;97611.55;;;15.97;98.57
58223;BME280;44020;50.890;15.796;2022-08-21T07:39:54;97609.00;;;15.97;98.69
58223;BME280;44020;50.890;15.796;2022-08-21T07:42:23;97609.95;;;15.98;98.61
58223;BME280;44020;50.890;15.796;2022-08-21T07:44:50;97609.87;;;16.01;98.75
58223;BME280;44020;50.890;15.796;2022-08-21T07:47:17;97610.08;;;16.03;98.70
58223;BME280;44020;50.890;15.796;2022-08-21T07:49:44;97609.61;;;16.04;98.81
58223;BME280;44020;50.890;15.796;2022-08-21T07:52:13;97606.50;;;16.07;98.86
58223;BME280;44020;50.890;15.796;2022-08-21T07:54:40;97607.91;;;16.09;98.59
58223;BME280;44020;50.890;15.796;2022-08-21T07:57:07;97609.42;;;16.10;98.69
58223;BME280;44020;50.890;15.796;2022-08-21T07:59:35;97606.23;;;16.12;98.66
58223;BME280;44020;50.890;15.796;2022-08-21T08:02:02;97607.83;;;16.14;98.72
58223;BME280;44020;50.890;15.796;2022-08-21T08:04:30;97608.59;;;16.15;98.55
58223;BME280;44020;50.890;15.796;2022-08-21T08:06:57;97606.75;;;16.17;98.62
58223;BME280;44020;50.890;15.796;2022-08-21T08:09:25;97607.32;;;16.17;98.44
58223;BME280;44020;50.890;15.796;2022-08-21T08:11:52;97601.28;;;16.18;98.52
58223;BME280;44020;50.890;15.796;2022-08-21T08:14:19;97606.05;;;16.21;98.31
58223;BME280;44020;50.890;15.796;2022-08-21T08:16:46;97604.47;;;16.22;98.40
58223;BME280;44020;50.890;15.796;2022-08-21T08:19:13;97604.43;;;16.25;98.08
58223;BME280;44020;50.890;15.796;2022-08-21T08:21:41;97602.36;;;16.26;98.07
58223;BME280;44020;50.890;15.796;2022-08-21T08:24:09;97602.09;;;16.29;98.08
58223;BME280;44020;50.890;15.796;2022-08-21T08:26:36;97601.89;;;16.31;98.06
58223;BME280;44020;50.890;15.796;2022-08-21T08:29:04;97599.48;;;16.34;98.10
58223;BME280;44020;50.890;15.796;2022-08-21T08:31:31;97594.16;;;16.36;97.93
58223;BME280;44020;50.890;15.796;2022-08-21T08:33:59;97590.56;;;16.40;97.94
58223;BME280;44020;50.890;15.796;2022-08-21T08:36:34;97595.73;;;16.41;97.42
58223;BME280;44020;50.890;15.796;2022-08-21T08:39:04;97597.13;;;16.39;97.26
58223;BME280;44020;50.890;15.796;2022-08-21T08:41:32;97599.10;;;16.39;97.17
58223;BME280;44020;50.890;15.796;2022-08-21T08:44:02;97600.70;;;16.41;96.97
58223;BME280;44020;50.890;15.796;2022-08-21T08:46:46;97596.81;;;16.42;96.66
58223;BME280;44020;50.890;15.796;2022-08-21T08:49:20;97597.60;;;16.46;96.68
58223;BME280;44020;50.890;15.796;2022-08-21T08:51:54;97595.30;;;16.49;96.70
58223;BME280;44020;50.890;15.796;2022-08-21T08:54:39;97596.76;;;16.53;96.71
58223;BME280;44020;50.890;15.796;2022-08-21T08:57:16;97599.02;;;16.55;96.64
58223;BME280;44020;50.890;15.796;2022-08-21T08:59:48;97599.89;;;16.59;96.69
58223;BME280;44020;50.890;15.796;2022-08-21T09:02:16;97599.91;;;16.61;96.36
58223;BME280;44020;50.890;15.796;2022-08-21T09:04:47;97601.35;;;16.57;95.82
58223;BME280;44020;50.890;15.796;2022-08-21T09:12:56;97601.79;;;16.58;96.03
58223;BME280;44020;50.890;15.796;2022-08-21T09:20:59;97601.25;;;16.65;95.61
58223;BME280;44020;50.890;15.796;2022-08-21T09:24:00;97601.92;;;16.68;95.56
58223;BME280;44020;50.890;15.796;2022-08-21T09:26:36;97600.13;;;16.72;95.36
58223;BME280;44020;50.890;15.796;2022-08-21T09:29:10;97603.39;;;16.73;95.11
58223;BME280;44020;50.890;15.796;2022-08-21T09:31:38;97599.44;;;16.73;94.80
58223;BME280;44020;50.890;15.796;2022-08-21T09:34:10;97597.85;;;16.76;94.77
58223;BME280;44020;50.890;15.796;2022-08-21T09:36:44;97597.11;;;16.78;94.54
58223;BME280;44020;50.890;15.796;2022-08-21T09:39:36;97592.11;;;16.80;94.56
58223;BME280;44020;50.890;15.796;2022-08-21T09:42:07;97588.20;;;16.87;94.64
58223;BME280;44020;50.890;15.796;2022-08-21T09:44:37;97585.48;;;16.91;94.58
58223;BME280;44020;50.890;15.796;2022-08-21T09:47:07;97587.06;;;16.97;94.56
58223;BME280;44020;50.890;15.796;2022-08-21T09:49:38;97581.38;;;16.98;94.25
58223;BME280;44020;50.890;15.796;2022-08-21T09:52:19;97580.17;;;16.98;94.07
58223;BME280;44020;50.890;15.796;2022-08-21T09:54:50;97583.21;;;17.02;94.10
58223;BME280;44020;50.890;15.796;2022-08-21T09:57:26;97582.98;;;17.02;93.94
58223;BME280;44020;50.890;15.796;2022-08-21T10:02:49;97581.00;;;17.08;93.59
58223;BME280;44020;50.890;15.796;2022-08-21T10:05:26;97579.79;;;17.13;93.57
58223;BME280;44020;50.890;15.796;2022-08-21T10:07:54;97580.20;;;17.16;93.03
58223;BME280;44020;50.890;15.796;2022-08-21T10:10:25;97580.00;;;17.16;93.03
58223;BME280;44020;50.890;15.796;2022-08-21T10:13:21;97585.23;;;17.17;92.82
58223;BME280;44020;50.890;15.796;2022-08-21T10:28:05;97571.56;;;17.28;92.38
58223;BME280;44020;50.890;15.796;2022-08-21T10:30:39;97568.23;;;17.32;92.07
58223;BME280;44020;50.890;15.796;2022-08-21T10:33:32;97563.80;;;17.33;91.64
58223;BME280;44020;50.890;15.796;2022-08-21T10:42:00;97561.42;;;17.38;90.81
58223;BME280;44020;50.890;15.796;2022-08-21T10:47:06;97564.70;;;17.47;90.71
58223;BME280;44020;50.890;15.796;2022-08-21T10:50:02;97560.17;;;17.53;90.85
58223;BME280;44020;50.890;15.796;2022-08-21T10:52:56;97560.67;;;17.60;90.82
58223;BME280;44020;50.890;15.796;2022-08-21T10:55:52;97560.66;;;17.65;90.69
58223;BME280;44020;50.890;15.796;2022-08-21T10:58:42;97558.13;;;17.71;90.40
58223;BME280;44020;50.890;15.796;2022-08-21T11:01:20;97562.70;;;17.68;89.69
58223;BME280;44020;50.890;15.796;2022-08-21T11:04:07;97562.73;;;17.64;89.71
58223;BME280;44020;50.890;15.796;2022-08-21T11:06:39;97558.58;;;17.66;89.67
58223;BME280;44020;50.890;15.796;2022-08-21T11:09:18;97555.90;;;17.70;90.04
58223;BME280;44020;50.890;15.796;2022-08-21T11:11:56;97556.20;;;17.78;90.26
58223;BME280;44020;50.890;15.796;2022-08-21T11:14:49;97551.23;;;17.84;90.04
58223;BME280;44020;50.890;15.796;2022-08-21T11:17:24;97551.50;;;17.85;89.28
58223;BME280;44020;50.890;15.796;2022-08-21T11:22:56;97546.21;;;17.86;89.07
58223;BME280;44020;50.890;15.796;2022-08-21T11:25:33;97542.34;;;17.91;89.00
58223;BME280;44020;50.890;15.796;2022-08-21T11:28:15;97545.29;;;17.93;89.19
58223;BME280;44020;50.890;15.796;2022-08-21T11:30:47;97543.41;;;17.99;89.29
58223;BME280;44020;50.890;15.796;2022-08-21T11:34:20;97543.05;;;18.05;89.41
58223;BME280;44020;50.890;15.796;2022-08-21T11:42:30;97541.39;;;18.10;85.17
58223;BME280;44020;50.890;15.796;2022-08-21T11:47:52;97541.70;;;18.00;85.40
58223;BME280;44020;50.890;15.796;2022-08-21T11:50:27;97541.31;;;18.02;85.07
58223;BME280;44020;50.890;15.796;2022-08-21T11:55:41;97543.11;;;18.06;83.79
58223;BME280;44020;50.890;15.796;2022-08-21T12:01:12;97533.20;;;18.11;83.38
58223;BME280;44020;50.890;15.796;2022-08-21T12:04:01;97539.66;;;18.15;83.05
58223;BME280;44020;50.890;15.796;2022-08-21T12:06:33;97537.16;;;18.20;82.57
58223;BME280;44020;50.890;15.796;2022-08-21T12:09:09;97538.77;;;18.25;81.40
58223;BME280;44020;50.890;15.796;2022-08-21T12:12:00;97540.37;;;18.25;79.86
58223;BME280;44020;50.890;15.796;2022-08-21T12:14:41;97541.23;;;18.25;79.08
58223;BME280;44020;50.890;15.796;2022-08-21T12:17:21;97542.75;;;18.25;78.36
58223;BME280;44020;50.890;15.796;2022-08-21T12:20:16;97546.00;;;18.26;78.55
58223;BME280;44020;50.890;15.796;2022-08-21T12:22:52;97548.01;;;18.31;77.98
58223;BME280;44020;50.890;15.796;2022-08-21T12:25:21;97548.39;;;18.33;77.81
58223;BME280;44020;50.890;15.796;2022-08-21T12:27:52;97549.83;;;18.36;77.84
58223;BME280;44020;50.890;15.796;2022-08-21T12:30:41;97548.39;;;18.38;77.39
58223;BME280;44020;50.890;15.796;2022-08-21T12:33:52;97546.18;;;18.40;76.95
58223;BME280;44020;50.890;15.796;2022-08-21T12:36:25;97547.93;;;18.42;77.21
58223;BME280;44020;50.890;15.796;2022-08-21T12:39:04;97547.31;;;18.46;77.19
58223;BME280;44020;50.890;15.796;2022-08-21T12:41:47;97544.58;;;18.50;76.91
58223;BME280;44020;50.890;15.796;2022-08-21T12:44:41;97545.77;;;18.54;77.05
58223;BME280;44020;50.890;15.796;2022-08-21T12:47:17;97543.63;;;18.56;77.02
58223;BME280;44020;50.890;15.796;2022-08-21T12:49:56;97546.34;;;18.57;77.54
58223;BME280;44020;50.890;15.796;2022-08-21T12:52:34;97540.72;;;18.59;77.37
58223;BME280;44020;50.890;15.796;2022-08-21T12:55:02;97543.13;;;18.62;77.57
58223;BME280;44020;50.890;15.796;2022-08-21T12:57:30;97540.89;;;18.65;77.55
58223;BME280;44020;50.890;15.796;2022-08-21T13:00:00;97544.23;;;18.67;77.66
58223;BME280;44020;50.890;15.796;2022-08-21T13:02:32;97542.20;;;18.64;77.33
58223;BME280;44020;50.890;15.796;2022-08-21T13:05:04;97541.60;;;18.65;77.61
58223;BME280;44020;50.890;15.796;2022-08-21T13:07:35;97537.20;;;18.64;77.47
58223;BME280;44020;50.890;15.796;2022-08-21T13:10:07;97534.84;;;18.62;77.41
58223;BME280;44020;50.890;15.796;2022-08-21T13:12:42;97527.67;;;18.62;77.66
58223;BME280;44020;50.890;15.796;2022-08-21T13:15:10;97530.70;;;18.64;77.67
58223;BME280;44020;50.890;15.796;2022-08-21T13:17:47;97527.56;;;18.66;77.65
58223;BME280;44020;50.890;15.796;2022-08-21T13:20:25;97525.89;;;18.69;77.49
58223;BME280;44020;50.890;15.796;2022-08-21T13:22:54;97528.33;;;18.69;77.21
58223;BME280;44020;50.890;15.796;2022-08-21T13:25:29;97534.05;;;18.68;76.66
58223;BME280;44020;50.890;15.796;2022-08-21T13:30:33;97535.27;;;18.63;75.91
58223;BME280;44020;50.890;15.796;2022-08-21T13:33:03;97535.73;;;18.57;75.67
58223;BME280;44020;50.890;15.796;2022-08-21T13:38:23;97539.33;;;18.50;75.60
58223;BME280;44020;50.890;15.796;2022-08-21T13:40:55;97539.09;;;18.49;75.65
58223;BME280;44020;50.890;15.796;2022-08-21T13:43:31;97541.41;;;18.48;75.61
58223;BME280;44020;50.890;15.796;2022-08-21T13:46:01;97543.81;;;18.47;75.76
58223;BME280;44020;50.890;15.796;2022-08-21T13:48:32;97542.77;;;18.47;75.89
58223;BME280;44020;50.890;15.796;2022-08-21T13:51:02;97542.36;;;18.45;76.04
58223;BME280;44020;50.890;15.796;2022-08-21T13:53:45;97539.27;;;18.44;76.14
58223;BME280;44020;50.890;15.796;2022-08-21T13:56:33;97540.96;;;18.45;76.28
58223;BME280;44020;50.890;15.796;2022-08-21T13:59:08;97537.95;;;18.45;75.67
58223;BME280;44020;50.890;15.796;2022-08-21T14:01:49;97535.56;;;18.43;75.74
58223;BME280;44020;50.890;15.796;2022-08-21T14:04:22;97531.50;;;18.41;75.65